Terminal Aerodrome Forecast
Issued by NWS

Home | Current Version | Previous Version | Text Only | Print | Product List | Glossary On
Versions: 1 2 3 4 5 6 7 8 9 10 11 12 13 14 15
000
FTUS44 KEPZ 202300
TAFDMN
TAF
KDMN 202325Z 2100/2124 28010KT P6SM FEW100
     FM210600 VRB04KT P6SM FEW200
     FM212000 22007KT P6SM VCTS SCT070CB SCT250=

USA.gov is the U.S. government's official web portal to all federal, state and local government web resources and services.